Main page
METAR-TAF:

METAR-TAF

Airports :

RAF Leeming

Leeming, England

latitude: 54-18N, longitude: 001-32W, elevation: 40 m

Current weather observation

The report was made 1 hour and 1 minutes ago, at 16:50 UTC
Wind 8 kt from the Southeast
Temperature 10°C
Humidity 87%
Pressure 1017 hPa
Visibility 10 km or more
Few clouds at a height of 800 ft

METAR: EGXE 151650Z 14008KT 9999 FEW008 10/08 Q1017 BLU NOSIG

Time: 17:51 (17:51 UTC)

Forecast

The report was made 4 hours and 8 minutes ago, at 13:43 UTC
Forecast valid from 15 at 15 UTC to 15 at 19 UTC
Wind 10 kt from the South/Southeast
Visibility: 5000 m
Few clouds at a height of 800 ft
haze
Probability 30%
from 15 at 15 UTC to 15 at 19 UTC
Visibility 10 km or more

TAF: EGXE 151343Z 1515/1519 16010KT 5000 HZ FEW008 PROB30 1515/1519 9999 NSW

Weather observations and forecasts of more than 4000 airports (METAR and TAF reports).

The available stations are represented by yellow and red dots on the map.

Hover mouse over dot to see the name of the station.

Then click to see weather observations and forecasts.

To change the map : click on the green buttons with a black cross to zoom in, on the green button with a dash to zoom out, or on the green arrows for adjacent maps.


METAR-TAF: